Terminal Aerodrome Forecast
Issued by NWS

Home | Current Version | Previous Version | Text Only | Print | Product List | Glossary On
Versions: 1 2 3 4 5 6 7 8 9 10 11 12
870
FTUS46 KHNX 272320
TAFVIS
TAF
KVIS 272320Z 2800/2824 32015G20KT P6SM SCT060 OVC200
     FM280600 33010KT P6SM FEW250
     FM281700 33016G22KT P6SM SCT250=

USA.gov is the U.S. government's official web portal to all federal, state and local government web resources and services.